createdAt,value
2018-12-13T00:00:15.642Z,12.23
2018-12-13T00:02:46.658Z,11.30
2018-12-13T00:05:17.624Z,10.50
2018-12-13T00:07:46.593Z,10.67
2018-12-13T00:10:15.558Z,11.87
2018-12-13T00:12:44.520Z,9.83
2018-12-13T00:15:13.536Z,11.23
2018-12-13T00:17:43.597Z,10.23
2018-12-13T00:20:12.608Z,12.67
2018-12-13T00:22:41.577Z,10.27
2018-12-13T00:25:10.549Z,10.83
2018-12-13T00:27:39.579Z,10.60
2018-12-13T00:30:08.563Z,10.63
2018-12-13T00:32:37.540Z,10.43
2018-12-13T00:35:06.510Z,10.47
2018-12-13T00:37:35.481Z,10.83
2018-12-13T00:40:04.547Z,10.77
2018-12-13T00:42:33.512Z,9.77
2018-12-13T00:45:02.508Z,10.30
2018-12-13T00:47:31.510Z,9.63
2018-12-13T00:50:00.473Z,10.00
2018-12-13T00:52:29.472Z,11.07
2018-12-13T00:54:58.504Z,10.17
2018-12-13T00:57:27.473Z,10.20
2018-12-13T00:59:56.465Z,10.50
2018-12-13T01:02:25.441Z,10.67
2018-12-13T01:04:54.470Z,10.57
2018-12-13T01:07:23.463Z,10.57
2018-12-13T01:09:52.432Z,9.90
2018-12-13T01:12:21.426Z,9.67
2018-12-13T01:14:50.392Z,9.67
2018-12-13T01:17:19.433Z,10.87
2018-12-13T01:19:48.409Z,9.53
2018-12-13T01:22:17.381Z,10.90
2018-12-13T01:24:46.343Z,8.37
2018-12-13T01:27:15.325Z,9.43
2018-12-13T01:29:44.329Z,9.83
2018-12-13T01:32:13.341Z,9.30
2018-12-13T01:34:42.484Z,7.93
2018-12-13T01:37:11.534Z,8.53
2018-12-13T01:39:40.504Z,10.60
2018-12-13T01:42:09.505Z,9.33
2018-12-13T01:44:38.511Z,9.93
2018-12-13T01:47:07.488Z,8.67
2018-12-13T01:49:36.449Z,8.80
2018-12-13T01:52:05.417Z,8.37
2018-12-13T01:54:34.409Z,8.20
2018-12-13T01:57:03.388Z,9.00
2018-12-13T01:59:32.347Z,9.57
2018-12-13T02:02:01.314Z,9.27
2018-12-13T02:04:30.290Z,8.57
2018-12-13T02:06:59.272Z,8.43
2018-12-13T02:09:28.236Z,9.43
2018-12-13T02:11:57.244Z,8.80
2018-12-13T02:14:26.208Z,7.97
2018-12-13T02:16:55.176Z,7.30
2018-12-13T02:19:24.254Z,8.77
2018-12-13T02:21:53.242Z,8.57
2018-12-13T02:24:22.210Z,6.63
2018-12-13T02:26:51.196Z,8.50
2018-12-13T02:29:20.161Z,7.93
2018-12-13T02:31:49.162Z,6.83
2018-12-13T02:34:18.121Z,7.50
2018-12-13T02:36:47.117Z,6.70
2018-12-13T02:39:16.171Z,8.43
2018-12-13T02:41:45.134Z,7.73
2018-12-13T02:44:14.124Z,7.47
2018-12-13T02:46:43.099Z,7.50
2018-12-13T02:49:12.052Z,7.93
2018-12-13T02:51:41.063Z,7.80
2018-12-13T02:54:10.017Z,7.13
2018-12-13T02:56:39.019Z,6.60
2018-12-13T02:59:08.006Z,7.30
2018-12-13T03:01:37.569Z,8.13
2018-12-13T03:04:06.577Z,6.57
2018-12-13T03:06:35.553Z,6.63
2018-12-13T03:09:06.841Z,6.83
2018-12-13T03:11:37.793Z,6.20
2018-12-13T03:14:06.754Z,6.60
2018-12-13T03:16:35.797Z,6.63
2018-12-13T03:19:04.761Z,7.77
2018-12-13T03:21:33.761Z,7.00
2018-12-13T03:24:02.760Z,6.57
2018-12-13T03:26:31.713Z,6.50
2018-12-13T03:29:00.685Z,5.57
2018-12-13T03:31:29.630Z,5.53
2018-12-13T03:33:58.688Z,6.40
2018-12-13T03:36:27.648Z,6.80
2018-12-13T03:38:56.728Z,5.63
2018-12-13T03:41:25.693Z,6.07
2018-12-13T03:43:54.649Z,5.83
2018-12-13T03:46:23.641Z,5.27
2018-12-13T03:48:52.597Z,6.27
2018-12-13T03:51:21.570Z,6.50
2018-12-13T03:53:50.529Z,6.20
2018-12-13T03:56:19.505Z,5.20
2018-12-13T03:58:48.478Z,5.93
2018-12-13T04:01:17.428Z,5.57
2018-12-13T04:03:46.439Z,4.23
2018-12-13T04:06:15.410Z,6.23
2018-12-13T04:08:44.417Z,5.57
2018-12-13T04:11:14.398Z,5.37
2018-12-13T04:13:43.350Z,5.47
2018-12-13T04:16:12.313Z,5.27
2018-12-13T04:18:41.289Z,5.87
2018-12-13T04:21:10.276Z,4.73
2018-12-13T04:23:39.270Z,5.10
2018-12-13T04:26:08.241Z,5.20
2018-12-13T04:28:37.208Z,4.87
2018-12-13T04:31:06.168Z,4.97
2018-12-13T04:33:35.134Z,4.60
2018-12-13T04:36:04.131Z,5.80
2018-12-13T04:38:34.144Z,5.00
2018-12-13T04:41:03.154Z,5.30
2018-12-13T04:43:32.188Z,5.20
2018-12-13T04:46:01.150Z,4.70
2018-12-13T04:48:30.149Z,4.93
2018-12-13T04:50:59.121Z,5.50
2018-12-13T04:53:28.082Z,6.50
2018-12-13T04:55:57.037Z,4.50
2018-12-13T04:58:26.014Z,4.67
2018-12-13T05:00:55.313Z,4.80
2018-12-13T05:03:24.281Z,4.93
2018-12-13T05:05:53.246Z,4.93
2018-12-13T05:08:22.226Z,4.87
2018-12-13T05:10:54.688Z,5.70
2018-12-13T05:13:23.785Z,5.10
2018-12-13T05:15:52.756Z,4.33
2018-12-13T05:18:22.706Z,5.93
2018-12-13T05:20:51.658Z,5.17
2018-12-13T05:23:20.618Z,5.10
2018-12-13T05:25:51.605Z,4.50
2018-12-13T05:28:20.564Z,4.63
2018-12-13T05:30:49.524Z,6.07
2018-12-13T05:33:18.550Z,4.87
2018-12-13T05:35:47.518Z,4.40
2018-12-13T05:38:16.505Z,5.27
2018-12-13T05:40:45.526Z,5.80
2018-12-13T05:43:14.504Z,5.27
2018-12-13T05:45:43.497Z,4.37
2018-12-13T05:48:12.476Z,5.80
2018-12-13T05:50:41.464Z,5.83
2018-12-13T05:53:10.477Z,6.60
2018-12-13T05:55:39.428Z,4.30
2018-12-13T05:58:08.409Z,5.57
2018-12-13T06:00:37.460Z,5.40
2018-12-13T06:03:06.460Z,4.93
2018-12-13T06:05:35.494Z,5.53
2018-12-13T06:08:04.481Z,5.53
2018-12-13T06:10:33.441Z,5.97
2018-12-13T06:13:02.437Z,6.53
2018-12-13T06:15:31.457Z,5.93
2018-12-13T06:18:06.669Z,5.90
2018-12-13T06:20:31.366Z,5.03
2018-12-13T06:23:00.405Z,5.23
2018-12-13T06:25:29.378Z,5.93
2018-12-13T06:27:58.375Z,5.43
2018-12-13T06:30:27.336Z,5.57
2018-12-13T06:32:56.297Z,5.20
2018-12-13T06:35:25.349Z,6.53
2018-12-13T06:37:54.322Z,8.93
2018-12-13T06:40:23.313Z,7.20
2018-12-13T06:42:52.352Z,8.00
2018-12-13T06:45:21.305Z,7.43
2018-12-13T06:47:50.264Z,7.47
2018-12-13T06:50:19.221Z,6.53
2018-12-13T06:52:48.200Z,4.20
2018-12-13T06:55:17.162Z,6.23
2018-12-13T06:57:46.145Z,6.00
2018-12-13T07:00:15.105Z,8.00
2018-12-13T07:02:44.056Z,7.33
2018-12-13T07:05:13.049Z,5.50
2018-12-13T07:07:42.001Z,5.90
2018-12-13T07:10:11.017Z,9.93
2018-12-13T07:12:46.512Z,6.63
2018-12-13T07:15:15.543Z,6.10
2018-12-13T07:17:44.588Z,9.27
2018-12-13T07:20:13.564Z,10.97
2018-12-13T07:22:42.521Z,14.70
2018-12-13T07:25:11.484Z,11.37
2018-12-13T07:27:40.450Z,10.90
2018-12-13T07:30:09.685Z,10.93
2018-12-13T07:32:38.660Z,9.27
2018-12-13T07:35:07.624Z,9.47
2018-12-13T07:37:36.572Z,13.67
2018-12-13T07:40:07.705Z,12.53
2018-12-13T07:42:36.784Z,13.30
2018-12-13T07:45:05.902Z,10.93
2018-12-13T07:47:34.936Z,11.67
2018-12-13T07:50:04.541Z,7.80
2018-12-13T07:52:33.512Z,12.50
2018-12-13T07:55:02.500Z,11.23
2018-12-13T07:57:31.461Z,13.23
2018-12-13T08:00:00.410Z,9.70
2018-12-13T08:02:29.366Z,17.93
2018-12-13T08:04:58.330Z,11.33
2018-12-13T08:07:27.305Z,9.13
2018-12-13T08:09:56.338Z,11.80
2018-12-13T08:12:25.294Z,9.87
2018-12-13T08:14:54.308Z,10.17
2018-12-13T08:17:23.264Z,8.93
2018-12-13T08:19:54.222Z,9.70
2018-12-13T08:22:23.181Z,9.63
2018-12-13T08:24:52.124Z,7.47
2018-12-13T08:27:22.152Z,7.63
2018-12-13T08:29:51.123Z,11.17
2018-12-13T08:32:20.117Z,9.40
2018-12-13T08:34:49.065Z,8.80
2018-12-13T08:37:18.048Z,13.37
2018-12-13T08:39:46.997Z,12.57
2018-12-13T08:42:15.961Z,8.67
2018-12-13T08:44:44.941Z,13.93
2018-12-13T08:47:13.884Z,8.43
2018-12-13T08:49:42.844Z,8.97
2018-12-13T08:52:11.785Z,7.77
2018-12-13T08:54:40.781Z,10.30
2018-12-13T08:57:09.782Z,9.57
2018-12-13T08:59:38.732Z,9.70
2018-12-13T09:02:07.689Z,9.07
2018-12-13T09:04:36.648Z,8.53
2018-12-13T09:07:05.614Z,7.17
2018-12-13T09:09:34.592Z,8.90
2018-12-13T09:12:03.665Z,6.60
2018-12-13T09:14:32.677Z,6.60
2018-12-13T09:17:01.629Z,8.83
2018-12-13T09:19:30.586Z,10.57
2018-12-13T09:21:59.565Z,8.13
2018-12-13T09:24:28.573Z,9.53
2018-12-13T09:26:57.529Z,9.90
2018-12-13T09:29:26.489Z,9.27
2018-12-13T09:31:55.476Z,10.43
2018-12-13T09:34:24.435Z,14.13
2018-12-13T09:36:53.393Z,13.90
2018-12-13T09:39:22.357Z,10.30
2018-12-13T09:41:51.468Z,10.47
2018-12-13T09:44:20.543Z,9.03
2018-12-13T09:46:49.536Z,11.33
2018-12-13T09:49:18.476Z,8.73
2018-12-13T09:51:47.427Z,8.87
2018-12-13T09:54:16.401Z,12.00
2018-12-13T09:56:45.353Z,9.77
2018-12-13T09:59:14.584Z,8.73
2018-12-13T10:01:43.550Z,9.40
2018-12-13T10:04:12.505Z,11.13
2018-12-13T10:06:41.475Z,9.20
2018-12-13T10:09:10.436Z,12.33
2018-12-13T10:11:39.416Z,10.83
2018-12-13T10:14:08.381Z,15.80
2018-12-13T10:16:38.369Z,14.70
2018-12-13T10:19:07.379Z,19.43
2018-12-13T10:21:36.333Z,14.70
2018-12-13T10:24:05.376Z,15.77
2018-12-13T10:26:34.337Z,18.73
2018-12-13T10:29:04.344Z,24.57
2018-12-13T10:31:33.344Z,15.13
2018-12-13T10:34:03.009Z,16.87
2018-12-13T10:36:31.989Z,19.90
2018-12-13T10:39:01.295Z,20.03
2018-12-13T10:41:31.841Z,16.47
2018-12-13T10:44:00.865Z,22.50
2018-12-13T10:46:29.917Z,21.93
2018-12-13T10:48:58.918Z,18.13
2018-12-13T10:51:28.069Z,15.93
2018-12-13T10:53:57.013Z,22.23
2018-12-13T10:56:25.969Z,21.33
2018-12-13T10:58:54.961Z,21.80
2018-12-13T11:01:29.201Z,21.23
2018-12-13T11:03:58.317Z,17.80
2018-12-13T11:06:27.324Z,25.77
2018-12-13T11:08:59.425Z,18.00
2018-12-13T11:11:27.233Z,16.10
2018-12-13T11:13:56.227Z,18.30
2018-12-13T11:16:25.173Z,18.50
2018-12-13T11:18:54.126Z,16.93
2018-12-13T11:21:23.148Z,20.70
2018-12-13T11:23:52.099Z,19.83
2018-12-13T11:26:21.167Z,14.47
2018-12-13T11:30:02.032Z,15.53
2018-12-13T11:32:32.112Z,17.10
2018-12-13T11:35:01.122Z,17.53
2018-12-13T11:37:30.113Z,23.53
2018-12-13T11:39:59.153Z,16.50
2018-12-13T11:44:54.287Z,17.37
2018-12-13T11:54:41.805Z,15.63
2018-12-13T11:57:10.488Z,14.77
2018-12-13T11:59:39.456Z,14.90
2018-12-13T12:02:08.459Z,14.07
2018-12-13T12:04:37.652Z,14.53
2018-12-13T12:07:06.622Z,11.53
2018-12-13T12:09:35.592Z,12.73
2018-12-13T12:12:04.618Z,15.37
2018-12-13T12:14:33.625Z,19.47
2018-12-13T12:17:02.583Z,12.40
2018-12-13T12:19:31.597Z,13.80
2018-12-13T12:22:00.554Z,15.27
2018-12-13T12:24:29.539Z,13.13
2018-12-13T12:26:58.522Z,15.63
2018-12-13T12:29:27.494Z,11.73
2018-12-13T12:31:56.482Z,13.67
2018-12-13T12:34:25.544Z,16.03
2018-12-13T12:36:54.562Z,15.43
2018-12-13T12:39:23.621Z,11.53
2018-12-13T12:41:52.601Z,10.87
2018-12-13T12:44:21.570Z,12.23
2018-12-13T12:46:50.607Z,14.23
2018-12-13T12:49:19.626Z,13.97
2018-12-13T12:51:48.628Z,14.23
2018-12-13T12:54:17.595Z,13.20
2018-12-13T12:56:46.609Z,10.57
2018-12-13T12:59:15.609Z,12.67
2018-12-13T13:01:44.608Z,14.83
2018-12-13T13:04:13.616Z,11.73
2018-12-13T13:06:42.596Z,13.33
2018-12-13T13:09:11.613Z,15.00
2018-12-13T13:11:40.609Z,12.07
2018-12-13T13:14:09.701Z,14.27
2018-12-13T13:16:38.705Z,13.03
2018-12-13T13:19:08.685Z,13.80
2018-12-13T13:21:37.763Z,16.13
2018-12-13T13:24:06.750Z,14.33
2018-12-13T13:26:35.752Z,13.13
2018-12-13T13:29:04.725Z,15.90
2018-12-13T13:31:33.736Z,16.10
2018-12-13T13:34:02.757Z,15.53
2018-12-13T13:36:31.748Z,13.87
2018-12-13T13:39:00.773Z,15.73
2018-12-13T13:41:29.760Z,12.20
2018-12-13T13:43:58.756Z,13.50
2018-12-13T13:46:27.765Z,11.90
2018-12-13T13:48:56.740Z,14.37
2018-12-13T13:51:25.768Z,14.57
2018-12-13T13:53:54.756Z,15.10
2018-12-13T13:56:23.803Z,14.63
2018-12-13T13:58:52.800Z,14.30
2018-12-13T14:01:21.781Z,12.50
2018-12-13T14:03:50.757Z,13.93
2018-12-13T14:06:19.820Z,13.50
2018-12-13T14:08:48.921Z,13.87
2018-12-13T14:11:17.896Z,10.67
2018-12-13T14:13:47.081Z,12.77
2018-12-13T14:16:16.078Z,11.90
2018-12-13T14:18:45.052Z,14.43
2018-12-13T14:21:14.093Z,14.83
2018-12-13T14:23:43.063Z,12.57
2018-12-13T14:26:12.045Z,13.67
2018-12-13T14:28:41.044Z,11.60
2018-12-13T14:31:10.049Z,15.67
2018-12-13T14:33:39.063Z,13.17
2018-12-13T14:36:08.053Z,10.20
2018-12-13T14:38:37.061Z,11.97
2018-12-13T14:41:08.024Z,10.90
2018-12-13T14:43:42.745Z,13.30
2018-12-13T14:46:11.732Z,10.20
2018-12-13T14:48:40.746Z,12.33
2018-12-13T14:51:09.721Z,10.17
2018-12-13T14:53:38.782Z,15.03
2018-12-13T14:56:07.792Z,10.33
2018-12-13T14:58:36.771Z,9.00
2018-12-13T15:01:05.830Z,9.90
2018-12-13T15:03:34.824Z,9.97
2018-12-13T15:06:03.849Z,9.97
2018-12-13T15:08:32.870Z,11.20
2018-12-13T15:11:01.883Z,11.33
2018-12-13T15:13:30.887Z,10.77
2018-12-13T15:15:59.892Z,9.93
2018-12-13T15:18:28.893Z,10.90
2018-12-13T15:20:57.906Z,10.20
2018-12-13T15:23:26.929Z,12.67
2018-12-13T15:25:55.928Z,10.97
2018-12-13T15:28:24.948Z,29.17
2018-12-13T15:30:53.948Z,18.60
2018-12-13T15:33:22.971Z,15.13
2018-12-13T15:35:52.070Z,18.80
2018-12-13T15:38:21.058Z,17.93
2018-12-13T15:40:50.094Z,19.00
2018-12-13T15:43:19.101Z,23.50
2018-12-13T15:45:48.221Z,16.20
2018-12-13T15:48:17.198Z,18.90
2018-12-13T15:50:46.365Z,19.00
2018-12-13T15:53:15.430Z,14.43
2018-12-13T15:55:44.395Z,17.57
2018-12-13T15:58:13.357Z,12.03
2018-12-13T16:00:42.329Z,13.40
2018-12-13T16:03:11.362Z,11.27
2018-12-13T16:05:40.387Z,15.23
2018-12-13T16:08:09.554Z,12.20
2018-12-13T16:10:38.601Z,10.23
2018-12-13T16:13:07.693Z,9.10
2018-12-13T16:15:36.644Z,9.47
2018-12-13T16:18:05.854Z,13.03
2018-12-13T16:20:34.833Z,11.80
2018-12-13T16:23:03.842Z,15.97
2018-12-13T16:25:32.865Z,9.93
2018-12-13T16:28:01.925Z,11.63
2018-12-13T16:30:30.942Z,14.70
2018-12-13T16:32:59.942Z,10.27
2018-12-13T16:35:28.939Z,10.43
2018-12-13T16:37:57.900Z,9.23
2018-12-13T16:40:26.882Z,8.70
2018-12-13T16:42:55.948Z,9.30
2018-12-13T16:45:25.030Z,14.03
2018-12-13T16:47:53.998Z,9.20
2018-12-13T16:50:22.969Z,11.10
2018-12-13T16:52:51.924Z,16.27
2018-12-13T16:55:20.892Z,11.60
2018-12-13T16:57:49.882Z,9.37
2018-12-13T17:00:18.849Z,10.10
2018-12-13T17:02:47.823Z,14.13
2018-12-13T17:05:16.788Z,13.67
2018-12-13T17:07:45.757Z,12.10
2018-12-13T17:10:16.975Z,10.43
2018-12-13T17:12:47.021Z,9.00
2018-12-13T17:15:16.031Z,10.07
2018-12-13T17:17:44.988Z,10.37
2018-12-13T17:20:14.016Z,11.53
2018-12-13T17:22:42.984Z,14.00
2018-12-13T17:25:11.946Z,9.07
2018-12-13T17:27:40.989Z,15.67
2018-12-13T17:30:10.107Z,14.87
2018-12-13T17:32:39.077Z,10.37
2018-12-13T17:35:08.114Z,9.23
2018-12-13T17:37:37.084Z,15.23
2018-12-13T17:40:06.309Z,15.50
2018-12-13T17:42:35.248Z,13.40
2018-12-13T17:45:04.320Z,13.73
2018-12-13T17:47:33.485Z,15.93
2018-12-13T17:50:02.480Z,20.47
2018-12-13T17:52:32.485Z,17.33
2018-12-13T17:55:01.458Z,13.17
2018-12-13T17:57:30.448Z,20.00
2018-12-13T17:59:59.769Z,17.53
2018-12-13T18:02:28.762Z,63.20
2018-12-13T18:04:57.757Z,57.23
2018-12-13T18:07:26.788Z,42.93
2018-12-13T18:09:55.780Z,36.47
2018-12-13T18:12:24.784Z,30.73
2018-12-13T18:14:53.894Z,39.73
2018-12-13T18:17:22.896Z,35.00
2018-12-13T18:19:51.917Z,30.07
2018-12-13T18:22:20.937Z,31.37
2018-12-13T18:24:49.936Z,32.90
2018-12-13T18:27:18.967Z,30.63
2018-12-13T18:29:47.956Z,29.37
2018-12-13T18:32:16.945Z,30.23
2018-12-13T18:34:46.045Z,26.20
2018-12-13T18:37:15.029Z,29.47
2018-12-13T18:39:44.021Z,27.23
2018-12-13T18:42:13.072Z,32.57
2018-12-13T18:44:42.047Z,23.40
2018-12-13T18:47:11.001Z,25.10
2018-12-13T18:49:39.978Z,25.20
2018-12-13T18:52:08.938Z,25.63
2018-12-13T18:54:39.150Z,23.27
2018-12-13T18:57:08.110Z,25.97
2018-12-13T18:59:37.073Z,22.40
2018-12-13T19:02:06.029Z,26.73
2018-12-13T19:04:36.070Z,26.90
2018-12-13T19:07:05.049Z,21.33
2018-12-13T19:09:34.013Z,26.50
2018-12-13T19:12:03.040Z,17.57
2018-12-13T19:14:32.056Z,18.80
2018-12-13T19:17:01.049Z,18.67
2018-12-13T19:19:30.065Z,22.10
2018-12-13T19:21:59.948Z,20.00
2018-12-13T19:24:31.772Z,18.43
2018-12-13T19:27:06.709Z,19.97
2018-12-13T19:29:36.561Z,21.87
2018-12-13T19:32:05.813Z,22.57
2018-12-13T19:34:34.839Z,16.50
2018-12-13T19:37:03.852Z,20.50
2018-12-13T19:39:32.830Z,17.50
2018-12-13T19:42:01.809Z,24.33
2018-12-13T19:44:30.845Z,19.03
2018-12-13T19:47:00.098Z,19.47
2018-12-13T19:49:29.092Z,23.07
2018-12-13T19:51:58.077Z,18.67
2018-12-13T19:54:27.152Z,14.27
2018-12-13T19:56:56.152Z,18.83
2018-12-13T19:59:25.209Z,17.87
2018-12-13T20:01:54.252Z,17.90
2018-12-13T20:04:23.252Z,16.47
2018-12-13T20:06:52.242Z,16.63
2018-12-13T20:09:21.332Z,18.80
2018-12-13T20:11:50.507Z,16.60
2018-12-13T20:14:19.512Z,17.53
2018-12-13T20:16:48.510Z,12.03
2018-12-13T20:19:17.508Z,17.43
2018-12-13T20:21:46.524Z,15.73
2018-12-13T20:24:15.681Z,14.93
2018-12-13T20:26:44.665Z,18.67
2018-12-13T20:29:14.253Z,12.67
2018-12-13T20:31:43.242Z,19.83
2018-12-13T20:34:12.242Z,14.77
2018-12-13T20:36:41.273Z,17.90
2018-12-13T20:39:10.282Z,19.43
2018-12-13T20:41:39.304Z,20.23
2018-12-13T20:44:08.314Z,17.13
2018-12-13T20:46:37.384Z,14.10
2018-12-13T20:49:06.482Z,16.10
2018-12-13T20:51:35.498Z,17.73
2018-12-13T20:54:04.482Z,17.53
2018-12-13T20:56:33.631Z,15.63
2018-12-13T20:59:02.628Z,18.07
2018-12-13T21:01:31.663Z,13.63
2018-12-13T21:04:00.677Z,18.27
2018-12-13T21:06:30.162Z,14.40
2018-12-13T21:08:59.208Z,14.33
2018-12-13T21:11:28.297Z,15.93
2018-12-13T21:13:57.412Z,15.83
2018-12-13T21:16:26.481Z,18.17
2018-12-13T21:18:55.483Z,15.97
2018-12-13T21:21:24.499Z,15.33
2018-12-13T21:23:53.551Z,18.13
2018-12-13T21:26:22.614Z,14.33
2018-12-13T21:28:51.606Z,17.67
2018-12-13T21:31:20.616Z,15.27
2018-12-13T21:33:49.630Z,14.77
2018-12-13T21:36:18.624Z,15.43
2018-12-13T21:38:47.653Z,14.87
2018-12-13T21:41:16.660Z,15.73
2018-12-13T21:43:45.725Z,14.07
2018-12-13T21:46:14.717Z,13.03
2018-12-13T21:48:43.730Z,14.13
2018-12-13T21:51:12.840Z,16.73
2018-12-13T21:53:41.834Z,16.40
2018-12-13T21:56:10.842Z,11.90
2018-12-13T21:58:39.856Z,15.47
2018-12-13T22:01:08.894Z,15.43
2018-12-13T22:03:37.899Z,13.23
2018-12-13T22:06:06.885Z,15.70
2018-12-13T22:08:35.916Z,14.23
2018-12-13T22:11:04.927Z,13.43
2018-12-13T22:13:33.963Z,13.50
2018-12-13T22:16:02.995Z,15.67
2018-12-13T22:18:32.030Z,14.10
2018-12-13T22:21:01.089Z,12.50
2018-12-13T22:23:30.089Z,13.70
2018-12-13T22:25:59.095Z,12.57
2018-12-13T22:28:28.096Z,12.33
2018-12-13T22:30:57.093Z,12.53
2018-12-13T22:33:26.098Z,14.10
2018-12-13T22:35:55.100Z,12.57
2018-12-13T22:38:24.081Z,12.63
2018-12-13T22:40:53.105Z,13.20
2018-12-13T22:43:22.080Z,16.50
2018-12-13T22:45:51.097Z,14.13
2018-12-13T22:48:20.134Z,14.70
2018-12-13T22:50:50.104Z,12.93
2018-12-13T22:53:19.101Z,13.53
2018-12-13T22:55:48.105Z,14.27
2018-12-13T22:58:17.136Z,14.00
2018-12-13T23:00:46.109Z,12.90
2018-12-13T23:03:16.110Z,12.83
2018-12-13T23:05:45.102Z,13.77
2018-12-13T23:08:14.093Z,15.43
2018-12-13T23:10:43.112Z,13.33
2018-12-13T23:13:12.376Z,15.10
2018-12-13T23:15:41.353Z,13.20
2018-12-13T23:18:10.365Z,15.80
2018-12-13T23:20:39.333Z,13.33
2018-12-13T23:23:08.375Z,14.70
2018-12-13T23:25:37.349Z,14.23
2018-12-13T23:28:06.328Z,15.40
2018-12-13T23:30:35.301Z,16.47
2018-12-13T23:33:04.280Z,16.20
2018-12-13T23:35:33.325Z,16.27
2018-12-13T23:38:02.324Z,15.53
2018-12-13T23:40:31.300Z,13.87
2018-12-13T23:43:00.320Z,16.20
2018-12-13T23:45:29.300Z,14.43
2018-12-13T23:47:58.364Z,15.13
2018-12-13T23:50:27.397Z,14.33
2018-12-13T23:52:57.016Z,14.33
2018-12-13T23:55:26.058Z,14.47
2018-12-13T23:57:55.024Z,14.50
